Carver, Minnesota
Current Conditions -  °F | °C
As of 7:53 AM on Saturday 25 Oct 2014 (Local Time) from KFCM Reporting Station
Clear Clear  
Wind Chill: 52°   Ceiling: Unl
Heat Index: 52°   Visibility: 10mi
Dew Point: 35°   Wind: 8mph
Humidity: 53%   Direction: 300°WNW
Pressure: 30"   Gusts: NA
Location:  44.76°N, 93.63°W
Report Text: KFCM 251253Z 30007KT 10SM CLR 11/02 A3000 RMK AO2 SLP161 T01110017
Loading
Personal Weather Stations






























Interactive Weather Map
Tropical Storm Tracking
New forecast layout! Learn more

10-Day Weather Forecast

Advertisements
Track Severe Weather on mobile